sensor_id;sensor_type;location;lat;lon;timestamp;P1;durP1;ratioP1;P2;durP2;ratioP2
75847;SDS011;73195;47.532;19.082;2024-01-30T00:00:32;36.33;;;16.62;;
75847;SDS011;73195;47.532;19.082;2024-01-30T00:03:00;36.15;;;16.67;;
75847;SDS011;73195;47.532;19.082;2024-01-30T00:05:27;33.87;;;15.67;;
75847;SDS011;73195;47.532;19.082;2024-01-30T00:07:54;35.42;;;15.63;;
75847;SDS011;73195;47.532;19.082;2024-01-30T00:10:23;35.53;;;15.80;;
75847;SDS011;73195;47.532;19.082;2024-01-30T00:12:51;38.85;;;16.40;;
75847;SDS011;73195;47.532;19.082;2024-01-30T00:15:18;39.55;;;16.83;;
75847;SDS011;73195;47.532;19.082;2024-01-30T00:17:46;34.43;;;15.67;;
75847;SDS011;73195;47.532;19.082;2024-01-30T00:20:12;37.35;;;15.98;;
75847;SDS011;73195;47.532;19.082;2024-01-30T00:22:40;40.70;;;16.10;;
75847;SDS011;73195;47.532;19.082;2024-01-30T00:25:07;40.35;;;16.92;;
75847;SDS011;73195;47.532;19.082;2024-01-30T00:27:35;39.47;;;17.12;;
75847;SDS011;73195;47.532;19.082;2024-01-30T00:30:03;40.90;;;16.80;;
75847;SDS011;73195;47.532;19.082;2024-01-30T00:32:32;37.00;;;15.75;;
75847;SDS011;73195;47.532;19.082;2024-01-30T00:34:59;37.17;;;16.42;;
75847;SDS011;73195;47.532;19.082;2024-01-30T00:37:26;36.83;;;16.50;;
75847;SDS011;73195;47.532;19.082;2024-01-30T00:39:53;39.38;;;15.82;;
75847;SDS011;73195;47.532;19.082;2024-01-30T00:42:20;39.80;;;17.00;;
75847;SDS011;73195;47.532;19.082;2024-01-30T00:44:49;37.47;;;16.83;;
75847;SDS011;73195;47.532;19.082;2024-01-30T00:47:17;38.55;;;16.60;;
75847;SDS011;73195;47.532;19.082;2024-01-30T00:49:44;36.72;;;16.73;;
75847;SDS011;73195;47.532;19.082;2024-01-30T00:52:11;38.53;;;16.33;;
75847;SDS011;73195;47.532;19.082;2024-01-30T00:54:38;42.77;;;17.77;;
75847;SDS011;73195;47.532;19.082;2024-01-30T00:57:05;38.65;;;17.15;;
75847;SDS011;73195;47.532;19.082;2024-01-30T00:59:32;38.55;;;15.98;;
75847;SDS011;73195;47.532;19.082;2024-01-30T01:02:00;36.92;;;16.75;;
75847;SDS011;73195;47.532;19.082;2024-01-30T01:04:28;40.00;;;16.45;;
75847;SDS011;73195;47.532;19.082;2024-01-30T01:06:55;35.93;;;15.27;;
75847;SDS011;73195;47.532;19.082;2024-01-30T01:09:22;39.08;;;16.42;;
75847;SDS011;73195;47.532;19.082;2024-01-30T01:11:49;39.85;;;17.48;;
75847;SDS011;73195;47.532;19.082;2024-01-30T01:14:17;38.70;;;17.35;;
75847;SDS011;73195;47.532;19.082;2024-01-30T01:16:44;44.47;;;17.25;;
75847;SDS011;73195;47.532;19.082;2024-01-30T01:19:11;40.77;;;17.70;;
75847;SDS011;73195;47.532;19.082;2024-01-30T01:21:39;42.22;;;17.60;;
75847;SDS011;73195;47.532;19.082;2024-01-30T01:24:06;39.53;;;16.55;;
75847;SDS011;73195;47.532;19.082;2024-01-30T01:26:33;40.78;;;17.92;;
75847;SDS011;73195;47.532;19.082;2024-01-30T01:29:00;35.50;;;17.70;;
75847;SDS011;73195;47.532;19.082;2024-01-30T01:31:30;40.00;;;17.13;;
75847;SDS011;73195;47.532;19.082;2024-01-30T01:33:57;38.20;;;17.12;;
75847;SDS011;73195;47.532;19.082;2024-01-30T01:36:24;38.40;;;17.27;;
75847;SDS011;73195;47.532;19.082;2024-01-30T01:38:52;46.88;;;17.87;;
75847;SDS011;73195;47.532;19.082;2024-01-30T01:41:19;40.63;;;17.25;;
75847;SDS011;73195;47.532;19.082;2024-01-30T01:43:46;46.50;;;17.73;;
75847;SDS011;73195;47.532;19.082;2024-01-30T01:46:14;38.38;;;17.48;;
75847;SDS011;73195;47.532;19.082;2024-01-30T01:48:41;44.63;;;17.25;;
75847;SDS011;73195;47.532;19.082;2024-01-30T01:51:08;45.08;;;16.98;;
75847;SDS011;73195;47.532;19.082;2024-01-30T01:53:36;39.38;;;16.87;;
75847;SDS011;73195;47.532;19.082;2024-01-30T01:56:05;41.60;;;17.93;;
75847;SDS011;73195;47.532;19.082;2024-01-30T01:58:32;39.40;;;17.08;;
75847;SDS011;73195;47.532;19.082;2024-01-30T02:00:59;39.33;;;17.67;;
75847;SDS011;73195;47.532;19.082;2024-01-30T02:03:26;38.35;;;17.58;;
75847;SDS011;73195;47.532;19.082;2024-01-30T02:05:53;37.25;;;17.58;;
75847;SDS011;73195;47.532;19.082;2024-01-30T02:08:21;41.30;;;17.83;;
75847;SDS011;73195;47.532;19.082;2024-01-30T02:10:48;41.92;;;17.23;;
75847;SDS011;73195;47.532;19.082;2024-01-30T02:13:17;37.88;;;17.90;;
75847;SDS011;73195;47.532;19.082;2024-01-30T02:15:44;41.47;;;18.33;;
75847;SDS011;73195;47.532;19.082;2024-01-30T02:18:16;44.40;;;18.37;;
75847;SDS011;73195;47.532;19.082;2024-01-30T02:20:49;39.80;;;18.53;;
75847;SDS011;73195;47.532;19.082;2024-01-30T02:23:19;48.05;;;19.55;;
75847;SDS011;73195;47.532;19.082;2024-01-30T02:25:46;49.22;;;20.23;;
75847;SDS011;73195;47.532;19.082;2024-01-30T02:28:13;47.55;;;19.80;;
75847;SDS011;73195;47.532;19.082;2024-01-30T02:30:42;45.33;;;20.48;;
75847;SDS011;73195;47.532;19.082;2024-01-30T02:33:09;44.97;;;18.13;;
75847;SDS011;73195;47.532;19.082;2024-01-30T02:35:36;47.53;;;19.23;;
75847;SDS011;73195;47.532;19.082;2024-01-30T02:38:04;46.92;;;19.90;;
75847;SDS011;73195;47.532;19.082;2024-01-30T02:40:32;42.00;;;18.62;;
75847;SDS011;73195;47.532;19.082;2024-01-30T02:42:59;45.12;;;18.30;;
75847;SDS011;73195;47.532;19.082;2024-01-30T02:45:27;39.50;;;17.67;;
75847;SDS011;73195;47.532;19.082;2024-01-30T02:47:54;43.30;;;18.27;;
75847;SDS011;73195;47.532;19.082;2024-01-30T02:50:22;43.70;;;18.70;;
75847;SDS011;73195;47.532;19.082;2024-01-30T02:52:49;41.13;;;17.42;;
75847;SDS011;73195;47.532;19.082;2024-01-30T02:55:16;45.55;;;18.25;;
75847;SDS011;73195;47.532;19.082;2024-01-30T02:57:45;39.53;;;17.53;;
75847;SDS011;73195;47.532;19.082;2024-01-30T03:00:12;42.30;;;18.05;;
75847;SDS011;73195;47.532;19.082;2024-01-30T03:02:40;36.70;;;17.87;;
75847;SDS011;73195;47.532;19.082;2024-01-30T03:05:07;43.20;;;18.27;;
75847;SDS011;73195;47.532;19.082;2024-01-30T03:07:34;44.70;;;18.77;;
75847;SDS011;73195;47.532;19.082;2024-01-30T03:10:01;48.37;;;19.33;;
75847;SDS011;73195;47.532;19.082;2024-01-30T03:12:29;44.75;;;19.25;;
75847;SDS011;73195;47.532;19.082;2024-01-30T03:14:57;40.75;;;19.33;;
75847;SDS011;73195;47.532;19.082;2024-01-30T03:17:24;44.35;;;18.48;;
75847;SDS011;73195;47.532;19.082;2024-01-30T03:19:51;47.90;;;20.08;;
75847;SDS011;73195;47.532;19.082;2024-01-30T03:22:18;45.83;;;18.97;;
75847;SDS011;73195;47.532;19.082;2024-01-30T03:24:45;41.75;;;18.48;;
75847;SDS011;73195;47.532;19.082;2024-01-30T03:27:12;41.05;;;18.62;;
75847;SDS011;73195;47.532;19.082;2024-01-30T03:29:39;40.17;;;18.95;;
75847;SDS011;73195;47.532;19.082;2024-01-30T03:32:08;44.63;;;19.02;;
75847;SDS011;73195;47.532;19.082;2024-01-30T03:34:35;41.33;;;16.40;;
75847;SDS011;73195;47.532;19.082;2024-01-30T03:37:02;36.25;;;16.25;;
75847;SDS011;73195;47.532;19.082;2024-01-30T03:39:30;40.55;;;16.30;;
75847;SDS011;73195;47.532;19.082;2024-01-30T03:41:57;38.03;;;16.95;;
75847;SDS011;73195;47.532;19.082;2024-01-30T03:44:24;40.33;;;17.35;;
75847;SDS011;73195;47.532;19.082;2024-01-30T03:46:51;43.97;;;17.47;;
75847;SDS011;73195;47.532;19.082;2024-01-30T03:49:19;42.53;;;17.27;;
75847;SDS011;73195;47.532;19.082;2024-01-30T03:51:46;43.15;;;17.55;;
75847;SDS011;73195;47.532;19.082;2024-01-30T03:54:14;42.22;;;17.55;;
75847;SDS011;73195;47.532;19.082;2024-01-30T03:56:41;38.90;;;16.80;;
75847;SDS011;73195;47.532;19.082;2024-01-30T03:59:08;42.83;;;17.03;;
75847;SDS011;73195;47.532;19.082;2024-01-30T04:01:35;44.20;;;17.67;;
75847;SDS011;73195;47.532;19.082;2024-01-30T04:04:03;36.55;;;16.77;;
75847;SDS011;73195;47.532;19.082;2024-01-30T04:06:31;39.92;;;15.90;;
75847;SDS011;73195;47.532;19.082;2024-01-30T04:08:58;40.33;;;16.50;;
75847;SDS011;73195;47.532;19.082;2024-01-30T04:11:25;40.60;;;16.07;;
75847;SDS011;73195;47.532;19.082;2024-01-30T04:13:52;41.35;;;16.73;;
75847;SDS011;73195;47.532;19.082;2024-01-30T04:16:19;44.28;;;17.27;;
75847;SDS011;73195;47.532;19.082;2024-01-30T04:18:47;39.67;;;16.33;;
75847;SDS011;73195;47.532;19.082;2024-01-30T04:21:14;38.70;;;16.60;;
75847;SDS011;73195;47.532;19.082;2024-01-30T04:23:43;39.30;;;16.43;;
75847;SDS011;73195;47.532;19.082;2024-01-30T04:26:10;38.40;;;16.52;;
75847;SDS011;73195;47.532;19.082;2024-01-30T04:28:37;36.70;;;16.05;;
75847;SDS011;73195;47.532;19.082;2024-01-30T04:31:04;33.28;;;14.98;;
75847;SDS011;73195;47.532;19.082;2024-01-30T04:33:32;39.45;;;15.77;;
75847;SDS011;73195;47.532;19.082;2024-01-30T04:35:58;40.53;;;16.40;;
75847;SDS011;73195;47.532;19.082;2024-01-30T04:38:26;35.75;;;16.62;;
75847;SDS011;73195;47.532;19.082;2024-01-30T04:40:54;40.38;;;16.42;;
75847;SDS011;73195;47.532;19.082;2024-01-30T04:43:22;35.20;;;16.12;;
75847;SDS011;73195;47.532;19.082;2024-01-30T04:45:49;38.90;;;15.82;;
75847;SDS011;73195;47.532;19.082;2024-01-30T04:48:17;35.80;;;15.83;;
75847;SDS011;73195;47.532;19.082;2024-01-30T04:50:44;40.58;;;17.23;;
75847;SDS011;73195;47.532;19.082;2024-01-30T04:53:11;35.00;;;15.65;;
75847;SDS011;73195;47.532;19.082;2024-01-30T04:55:38;45.83;;;17.20;;
75847;SDS011;73195;47.532;19.082;2024-01-30T04:58:06;36.70;;;15.75;;
75847;SDS011;73195;47.532;19.082;2024-01-30T05:00:34;36.67;;;16.40;;
75847;SDS011;73195;47.532;19.082;2024-01-30T05:03:01;36.88;;;16.55;;
75847;SDS011;73195;47.532;19.082;2024-01-30T05:05:28;37.00;;;16.08;;
75847;SDS011;73195;47.532;19.082;2024-01-30T05:07:55;37.08;;;16.02;;
75847;SDS011;73195;47.532;19.082;2024-01-30T05:10:23;36.33;;;15.65;;
75847;SDS011;73195;47.532;19.082;2024-01-30T05:12:50;39.13;;;16.50;;
75847;SDS011;73195;47.532;19.082;2024-01-30T05:15:18;34.53;;;15.25;;
75847;SDS011;73195;47.532;19.082;2024-01-30T05:17:46;37.65;;;16.10;;
75847;SDS011;73195;47.532;19.082;2024-01-30T05:20:13;37.20;;;16.25;;
75847;SDS011;73195;47.532;19.082;2024-01-30T05:22:41;39.10;;;15.80;;
75847;SDS011;73195;47.532;19.082;2024-01-30T05:25:10;39.90;;;16.23;;
75847;SDS011;73195;47.532;19.082;2024-01-30T05:27:38;37.05;;;15.82;;
75847;SDS011;73195;47.532;19.082;2024-01-30T05:30:05;34.65;;;16.52;;
75847;SDS011;73195;47.532;19.082;2024-01-30T05:32:35;36.47;;;15.55;;
75847;SDS011;73195;47.532;19.082;2024-01-30T05:35:02;38.78;;;15.88;;
75847;SDS011;73195;47.532;19.082;2024-01-30T05:37:29;35.47;;;15.43;;
75847;SDS011;73195;47.532;19.082;2024-01-30T05:39:57;33.97;;;15.77;;
75847;SDS011;73195;47.532;19.082;2024-01-30T05:42:24;36.65;;;16.08;;
75847;SDS011;73195;47.532;19.082;2024-01-30T05:44:52;32.60;;;14.90;;
75847;SDS011;73195;47.532;19.082;2024-01-30T05:47:19;31.67;;;15.00;;
75847;SDS011;73195;47.532;19.082;2024-01-30T05:49:48;35.13;;;15.63;;
75847;SDS011;73195;47.532;19.082;2024-01-30T05:52:14;36.42;;;15.80;;
75847;SDS011;73195;47.532;19.082;2024-01-30T05:54:43;33.95;;;16.10;;
75847;SDS011;73195;47.532;19.082;2024-01-30T05:57:10;38.67;;;15.63;;
75847;SDS011;73195;47.532;19.082;2024-01-30T05:59:37;35.30;;;14.75;;
75847;SDS011;73195;47.532;19.082;2024-01-30T06:02:04;34.77;;;15.50;;
75847;SDS011;73195;47.532;19.082;2024-01-30T06:04:31;33.25;;;14.90;;
75847;SDS011;73195;47.532;19.082;2024-01-30T06:07:00;37.45;;;15.65;;
75847;SDS011;73195;47.532;19.082;2024-01-30T06:09:27;36.38;;;15.38;;
75847;SDS011;73195;47.532;19.082;2024-01-30T06:11:55;40.40;;;15.35;;
75847;SDS011;73195;47.532;19.082;2024-01-30T06:14:22;35.37;;;15.17;;
75847;SDS011;73195;47.532;19.082;2024-01-30T06:16:49;34.92;;;15.32;;
75847;SDS011;73195;47.532;19.082;2024-01-30T06:19:16;34.33;;;15.63;;
75847;SDS011;73195;47.532;19.082;2024-01-30T06:21:44;36.33;;;15.48;;
75847;SDS011;73195;47.532;19.082;2024-01-30T06:24:12;36.42;;;15.10;;
75847;SDS011;73195;47.532;19.082;2024-01-30T06:26:40;34.80;;;15.50;;
75847;SDS011;73195;47.532;19.082;2024-01-30T06:29:07;34.05;;;14.90;;
75847;SDS011;73195;47.532;19.082;2024-01-30T06:31:39;33.88;;;15.27;;
75847;SDS011;73195;47.532;19.082;2024-01-30T06:34:06;38.38;;;14.90;;
75847;SDS011;73195;47.532;19.082;2024-01-30T06:36:33;36.30;;;14.07;;
75847;SDS011;73195;47.532;19.082;2024-01-30T06:39:01;33.17;;;13.60;;
75847;SDS011;73195;47.532;19.082;2024-01-30T06:41:30;33.10;;;14.23;;
75847;SDS011;73195;47.532;19.082;2024-01-30T06:43:57;29.92;;;13.73;;
75847;SDS011;73195;47.532;19.082;2024-01-30T06:46:24;34.53;;;14.13;;
75847;SDS011;73195;47.532;19.082;2024-01-30T06:48:51;33.03;;;13.95;;
75847;SDS011;73195;47.532;19.082;2024-01-30T06:51:18;33.30;;;14.17;;
75847;SDS011;73195;47.532;19.082;2024-01-30T06:53:45;35.78;;;15.30;;
75847;SDS011;73195;47.532;19.082;2024-01-30T06:56:12;36.58;;;15.27;;
75847;SDS011;73195;47.532;19.082;2024-01-30T06:58:41;34.63;;;15.90;;
75847;SDS011;73195;47.532;19.082;2024-01-30T07:03:07;35.00;;;14.37;;
75847;SDS011;73195;47.532;19.082;2024-01-30T07:05:34;31.15;;;14.38;;
75847;SDS011;73195;47.532;19.082;2024-01-30T07:08:01;30.98;;;13.70;;
75847;SDS011;73195;47.532;19.082;2024-01-30T07:10:28;37.15;;;14.85;;
75847;SDS011;73195;47.532;19.082;2024-01-30T07:12:57;35.85;;;14.68;;
75847;SDS011;73195;47.532;19.082;2024-01-30T07:15:24;35.38;;;13.93;;
75847;SDS011;73195;47.532;19.082;2024-01-30T07:17:51;31.02;;;13.68;;
75847;SDS011;73195;47.532;19.082;2024-01-30T07:20:19;36.05;;;14.73;;
75847;SDS011;73195;47.532;19.082;2024-01-30T07:22:46;34.58;;;15.57;;
75847;SDS011;73195;47.532;19.082;2024-01-30T07:25:13;33.55;;;14.57;;
75847;SDS011;73195;47.532;19.082;2024-01-30T07:27:41;32.90;;;14.97;;
75847;SDS011;73195;47.532;19.082;2024-01-30T07:30:08;36.30;;;15.20;;
75847;SDS011;73195;47.532;19.082;2024-01-30T07:32:35;37.63;;;14.60;;
75847;SDS011;73195;47.532;19.082;2024-01-30T07:35:03;33.90;;;15.52;;
75847;SDS011;73195;47.532;19.082;2024-01-30T07:37:32;34.63;;;14.95;;
75847;SDS011;73195;47.532;19.082;2024-01-30T07:39:59;30.27;;;14.33;;
75847;SDS011;73195;47.532;19.082;2024-01-30T07:42:26;33.65;;;15.18;;
75847;SDS011;73195;47.532;19.082;2024-01-30T07:44:53;32.60;;;15.35;;
75847;SDS011;73195;47.532;19.082;2024-01-30T07:47:20;38.88;;;16.17;;
75847;SDS011;73195;47.532;19.082;2024-01-30T07:49:48;34.45;;;15.50;;
75847;SDS011;73195;47.532;19.082;2024-01-30T07:52:15;40.30;;;15.52;;
75847;SDS011;73195;47.532;19.082;2024-01-30T07:54:43;35.97;;;14.70;;
75847;SDS011;73195;47.532;19.082;2024-01-30T07:57:10;38.33;;;16.60;;
75847;SDS011;73195;47.532;19.082;2024-01-30T07:59:37;32.60;;;16.08;;
75847;SDS011;73195;47.532;19.082;2024-01-30T08:02:04;36.28;;;16.23;;
75847;SDS011;73195;47.532;19.082;2024-01-30T08:04:31;39.40;;;16.25;;
75847;SDS011;73195;47.532;19.082;2024-01-30T08:06:58;36.30;;;15.98;;
75847;SDS011;73195;47.532;19.082;2024-01-30T08:09:26;35.05;;;16.25;;
75847;SDS011;73195;47.532;19.082;2024-01-30T08:11:55;35.45;;;16.25;;
75847;SDS011;73195;47.532;19.082;2024-01-30T08:14:22;38.53;;;16.10;;
75847;SDS011;73195;47.532;19.082;2024-01-30T08:16:49;40.47;;;16.87;;
75847;SDS011;73195;47.532;19.082;2024-01-30T08:19:16;39.20;;;17.42;;
75847;SDS011;73195;47.532;19.082;2024-01-30T08:21:44;41.50;;;17.35;;
75847;SDS011;73195;47.532;19.082;2024-01-30T08:24:11;38.00;;;17.02;;
75847;SDS011;73195;47.532;19.082;2024-01-30T08:26:38;38.05;;;17.27;;
75847;SDS011;73195;47.532;19.082;2024-01-30T08:29:07;37.23;;;17.00;;
75847;SDS011;73195;47.532;19.082;2024-01-30T08:31:34;36.08;;;16.92;;
75847;SDS011;73195;47.532;19.082;2024-01-30T08:34:01;37.05;;;17.05;;
75847;SDS011;73195;47.532;19.082;2024-01-30T08:36:28;42.20;;;18.12;;
75847;SDS011;73195;47.532;19.082;2024-01-30T08:38:55;41.10;;;17.70;;
75847;SDS011;73195;47.532;19.082;2024-01-30T08:41:22;38.03;;;17.25;;
75847;SDS011;73195;47.532;19.082;2024-01-30T08:43:49;43.70;;;16.62;;
75847;SDS011;73195;47.532;19.082;2024-01-30T08:46:21;35.83;;;16.85;;
75847;SDS011;73195;47.532;19.082;2024-01-30T08:48:48;37.25;;;16.02;;
75847;SDS011;73195;47.532;19.082;2024-01-30T08:51:15;29.87;;;14.73;;
75847;SDS011;73195;47.532;19.082;2024-01-30T08:53:42;35.88;;;15.57;;
75847;SDS011;73195;47.532;19.082;2024-01-30T08:56:09;35.53;;;15.55;;
75847;SDS011;73195;47.532;19.082;2024-01-30T08:58:36;33.25;;;15.40;;
75847;SDS011;73195;47.532;19.082;2024-01-30T09:01:03;30.65;;;15.02;;
75847;SDS011;73195;47.532;19.082;2024-01-30T09:03:32;32.85;;;15.18;;
75847;SDS011;73195;47.532;19.082;2024-01-30T09:05:59;32.40;;;14.55;;
75847;SDS011;73195;47.532;19.082;2024-01-30T09:08:26;37.40;;;15.65;;
75847;SDS011;73195;47.532;19.082;2024-01-30T09:10:54;35.75;;;15.40;;
75847;SDS011;73195;47.532;19.082;2024-01-30T09:13:21;39.28;;;15.57;;
75847;SDS011;73195;47.532;19.082;2024-01-30T09:15:48;37.88;;;15.75;;
75847;SDS011;73195;47.532;19.082;2024-01-30T09:18:16;36.70;;;15.35;;
75847;SDS011;73195;47.532;19.082;2024-01-30T09:20:44;38.33;;;15.98;;
75847;SDS011;73195;47.532;19.082;2024-01-30T09:23:13;36.33;;;16.15;;
75847;SDS011;73195;47.532;19.082;2024-01-30T09:25:40;33.22;;;15.77;;
75847;SDS011;73195;47.532;19.082;2024-01-30T09:28:07;33.97;;;16.25;;
75847;SDS011;73195;47.532;19.082;2024-01-30T09:30:34;32.65;;;15.38;;
75847;SDS011;73195;47.532;19.082;2024-01-30T09:33:01;32.58;;;14.02;;
75847;SDS011;73195;47.532;19.082;2024-01-30T09:35:29;32.90;;;14.95;;
75847;SDS011;73195;47.532;19.082;2024-01-30T09:37:57;35.70;;;14.07;;
75847;SDS011;73195;47.532;19.082;2024-01-30T09:40:25;35.00;;;15.27;;
75847;SDS011;73195;47.532;19.082;2024-01-30T09:42:53;33.85;;;14.13;;
75847;SDS011;73195;47.532;19.082;2024-01-30T09:45:20;39.33;;;15.55;;
75847;SDS011;73195;47.532;19.082;2024-01-30T09:47:51;43.10;;;15.50;;
75847;SDS011;73195;47.532;19.082;2024-01-30T09:50:18;31.80;;;14.75;;
75847;SDS011;73195;47.532;19.082;2024-01-30T09:52:45;31.58;;;14.30;;
75847;SDS011;73195;47.532;19.082;2024-01-30T09:55:14;31.70;;;14.48;;
75847;SDS011;73195;47.532;19.082;2024-01-30T09:57:41;34.97;;;14.43;;
75847;SDS011;73195;47.532;19.082;2024-01-30T10:00:09;30.35;;;14.50;;
75847;SDS011;73195;47.532;19.082;2024-01-30T10:02:38;30.98;;;14.52;;
75847;SDS011;73195;47.532;19.082;2024-01-30T10:05:05;32.42;;;14.87;;
75847;SDS011;73195;47.532;19.082;2024-01-30T10:07:32;33.83;;;14.75;;
75847;SDS011;73195;47.532;19.082;2024-01-30T10:09:59;31.08;;;14.70;;
75847;SDS011;73195;47.532;19.082;2024-01-30T10:12:29;35.53;;;15.65;;
75847;SDS011;73195;47.532;19.082;2024-01-30T10:14:56;32.05;;;15.43;;
75847;SDS011;73195;47.532;19.082;2024-01-30T10:17:24;38.55;;;16.30;;
75847;SDS011;73195;47.532;19.082;2024-01-30T10:19:52;31.73;;;13.38;;
75847;SDS011;73195;47.532;19.082;2024-01-30T10:22:19;22.90;;;11.77;;
75847;SDS011;73195;47.532;19.082;2024-01-30T10:24:46;31.25;;;13.30;;
75847;SDS011;73195;47.532;19.082;2024-01-30T10:27:15;28.27;;;12.63;;
75847;SDS011;73195;47.532;19.082;2024-01-30T10:29:43;28.67;;;12.98;;
75847;SDS011;73195;47.532;19.082;2024-01-30T10:32:10;27.55;;;12.30;;
75847;SDS011;73195;47.532;19.082;2024-01-30T10:34:37;32.03;;;11.85;;
75847;SDS011;73195;47.532;19.082;2024-01-30T10:37:07;27.70;;;12.57;;
75847;SDS011;73195;47.532;19.082;2024-01-30T10:39:38;29.37;;;12.80;;
75847;SDS011;73195;47.532;19.082;2024-01-30T10:42:06;26.40;;;11.90;;
75847;SDS011;73195;47.532;19.082;2024-01-30T10:44:36;24.80;;;11.27;;
75847;SDS011;73195;47.532;19.082;2024-01-30T10:47:09;27.85;;;11.75;;
75847;SDS011;73195;47.532;19.082;2024-01-30T10:49:39;33.33;;;12.32;;
75847;SDS011;73195;47.532;19.082;2024-01-30T10:52:06;25.60;;;11.25;;
75847;SDS011;73195;47.532;19.082;2024-01-30T10:54:35;26.12;;;10.93;;
75847;SDS011;73195;47.532;19.082;2024-01-30T10:57:03;26.27;;;10.77;;
75847;SDS011;73195;47.532;19.082;2024-01-30T10:59:31;21.80;;;10.95;;
75847;SDS011;73195;47.532;19.082;2024-01-30T11:01:59;28.17;;;12.40;;
75847;SDS011;73195;47.532;19.082;2024-01-30T11:04:27;25.17;;;12.02;;
75847;SDS011;73195;47.532;19.082;2024-01-30T11:07:02;23.23;;;11.30;;
75847;SDS011;73195;47.532;19.082;2024-01-30T11:09:31;26.70;;;11.25;;
75847;SDS011;73195;47.532;19.082;2024-01-30T11:12:03;25.55;;;11.10;;
75847;SDS011;73195;47.532;19.082;2024-01-30T11:14:31;32.53;;;11.70;;
75847;SDS011;73195;47.532;19.082;2024-01-30T11:16:58;24.85;;;10.50;;
75847;SDS011;73195;47.532;19.082;2024-01-30T11:19:26;28.00;;;11.10;;
75847;SDS011;73195;47.532;19.082;2024-01-30T11:21:57;22.45;;;11.07;;
75847;SDS011;73195;47.532;19.082;2024-01-30T11:24:24;30.50;;;10.73;;
75847;SDS011;73195;47.532;19.082;2024-01-30T11:26:55;26.83;;;11.48;;
75847;SDS011;73195;47.532;19.082;2024-01-30T11:29:24;24.83;;;11.57;;
75847;SDS011;73195;47.532;19.082;2024-01-30T11:31:52;24.90;;;11.48;;
75847;SDS011;73195;47.532;19.082;2024-01-30T11:34:19;28.27;;;11.63;;
75847;SDS011;73195;47.532;19.082;2024-01-30T11:36:51;23.25;;;11.73;;
75847;SDS011;73195;47.532;19.082;2024-01-30T11:39:20;26.42;;;10.85;;
75847;SDS011;73195;47.532;19.082;2024-01-30T11:41:49;22.45;;;11.00;;
75847;SDS011;73195;47.532;19.082;2024-01-30T11:44:18;24.83;;;11.25;;
75847;SDS011;73195;47.532;19.082;2024-01-30T11:46:46;23.65;;;10.93;;
75847;SDS011;73195;47.532;19.082;2024-01-30T11:49:13;20.10;;;9.60;;
75847;SDS011;73195;47.532;19.082;2024-01-30T11:51:40;25.40;;;10.23;;
75847;SDS011;73195;47.532;19.082;2024-01-30T11:54:09;21.35;;;9.77;;
75847;SDS011;73195;47.532;19.082;2024-01-30T11:56:36;22.08;;;8.98;;
75847;SDS011;73195;47.532;19.082;2024-01-30T11:59:03;21.35;;;9.73;;
75847;SDS011;73195;47.532;19.082;2024-01-30T12:01:31;23.87;;;10.98;;
75847;SDS011;73195;47.532;19.082;2024-01-30T12:03:58;20.45;;;10.63;;
75847;SDS011;73195;47.532;19.082;2024-01-30T12:06:25;19.58;;;8.73;;
75847;SDS011;73195;47.532;19.082;2024-01-30T12:08:56;21.75;;;9.48;;
75847;SDS011;73195;47.532;19.082;2024-01-30T12:11:26;23.25;;;9.68;;
75847;SDS011;73195;47.532;19.082;2024-01-30T12:13:55;20.83;;;9.07;;
75847;SDS011;73195;47.532;19.082;2024-01-30T12:16:23;23.12;;;10.00;;
75847;SDS011;73195;47.532;19.082;2024-01-30T12:18:58;19.48;;;9.18;;
75847;SDS011;73195;47.532;19.082;2024-01-30T12:21:26;21.00;;;9.02;;
75847;SDS011;73195;47.532;19.082;2024-01-30T12:23:53;24.92;;;10.73;;
75847;SDS011;73195;47.532;19.082;2024-01-30T12:26:20;19.90;;;9.07;;
75847;SDS011;73195;47.532;19.082;2024-01-30T12:28:49;21.20;;;9.27;;
75847;SDS011;73195;47.532;19.082;2024-01-30T12:31:17;19.25;;;8.38;;
75847;SDS011;73195;47.532;19.082;2024-01-30T12:33:45;19.45;;;8.43;;
75847;SDS011;73195;47.532;19.082;2024-01-30T12:36:15;18.87;;;9.30;;
75847;SDS011;73195;47.532;19.082;2024-01-30T12:38:43;22.75;;;7.95;;
75847;SDS011;73195;47.532;19.082;2024-01-30T12:41:10;15.90;;;6.93;;
75847;SDS011;73195;47.532;19.082;2024-01-30T12:43:37;14.98;;;6.70;;
75847;SDS011;73195;47.532;19.082;2024-01-30T12:46:06;16.30;;;6.70;;
75847;SDS011;73195;47.532;19.082;2024-01-30T12:48:34;14.13;;;6.60;;
75847;SDS011;73195;47.532;19.082;2024-01-30T12:51:01;16.73;;;7.22;;
75847;SDS011;73195;47.532;19.082;2024-01-30T12:53:28;14.95;;;6.65;;
75847;SDS011;73195;47.532;19.082;2024-01-30T12:55:56;13.62;;;6.45;;
75847;SDS011;73195;47.532;19.082;2024-01-30T12:58:23;13.35;;;6.60;;
75847;SDS011;73195;47.532;19.082;2024-01-30T13:00:50;17.67;;;5.93;;
75847;SDS011;73195;47.532;19.082;2024-01-30T13:03:18;13.32;;;6.22;;
75847;SDS011;73195;47.532;19.082;2024-01-30T13:05:45;13.43;;;6.10;;
75847;SDS011;73195;47.532;19.082;2024-01-30T13:08:13;16.77;;;6.70;;
75847;SDS011;73195;47.532;19.082;2024-01-30T13:10:40;16.33;;;6.00;;
75847;SDS011;73195;47.532;19.082;2024-01-30T13:13:07;11.80;;;5.78;;
75847;SDS011;73195;47.532;19.082;2024-01-30T13:15:35;14.50;;;6.20;;
75847;SDS011;73195;47.532;19.082;2024-01-30T13:18:02;16.73;;;5.00;;
75847;SDS011;73195;47.532;19.082;2024-01-30T13:20:31;13.77;;;5.10;;
75847;SDS011;73195;47.532;19.082;2024-01-30T13:22:59;12.77;;;5.15;;
75847;SDS011;73195;47.532;19.082;2024-01-30T13:25:26;13.55;;;5.35;;
75847;SDS011;73195;47.532;19.082;2024-01-30T13:27:52;12.20;;;5.30;;
75847;SDS011;73195;47.532;19.082;2024-01-30T13:30:20;11.23;;;5.45;;
75847;SDS011;73195;47.532;19.082;2024-01-30T13:32:47;11.30;;;4.87;;
75847;SDS011;73195;47.532;19.082;2024-01-30T13:35:14;12.20;;;5.28;;
75847;SDS011;73195;47.532;19.082;2024-01-30T13:37:43;16.48;;;6.60;;
75847;SDS011;73195;47.532;19.082;2024-01-30T13:40:10;12.97;;;6.30;;
75847;SDS011;73195;47.532;19.082;2024-01-30T13:42:38;12.60;;;5.30;;
75847;SDS011;73195;47.532;19.082;2024-01-30T13:45:05;9.52;;;4.60;;
75847;SDS011;73195;47.532;19.082;2024-01-30T13:47:35;9.13;;;4.53;;
75847;SDS011;73195;47.532;19.082;2024-01-30T13:50:02;8.02;;;3.70;;
75847;SDS011;73195;47.532;19.082;2024-01-30T13:52:30;8.50;;;3.53;;
75847;SDS011;73195;47.532;19.082;2024-01-30T13:54:58;8.48;;;3.83;;
75847;SDS011;73195;47.532;19.082;2024-01-30T13:57:25;9.50;;;3.70;;
75847;SDS011;73195;47.532;19.082;2024-01-30T13:59:52;8.38;;;3.87;;
75847;SDS011;73195;47.532;19.082;2024-01-30T14:02:20;7.18;;;3.87;;
75847;SDS011;73195;47.532;19.082;2024-01-30T14:04:47;8.13;;;3.73;;
75847;SDS011;73195;47.532;19.082;2024-01-30T14:07:14;9.23;;;3.97;;
75847;SDS011;73195;47.532;19.082;2024-01-30T14:09:43;10.35;;;4.75;;
75847;SDS011;73195;47.532;19.082;2024-01-30T14:12:12;8.30;;;4.32;;
75847;SDS011;73195;47.532;19.082;2024-01-30T14:14:39;12.80;;;4.22;;